This is the latest recevied weather packets stored in our database for station/object TA1FM. If no packets are shown the sender has not sent any weather packets the latest 10 day(s).
| Time | Temp. | Humidity | Pressure | Rain* | Wind** | Luminosity | Snow |
|---|---|---|---|---|---|---|---|
| 1777551393 | 11.11° C | 69% | 911.1 hPa | - | - | - | - |
| 1777550492 | 10.56° C | 63% | 911.3 hPa | - | - | - | - |
| 1777521628 | 8.89° C | 36% | 911.6 hPa | - | - | - | - |
| 1777518512 | 9.44° C | 35% | 911.6 hPa | - | - | - | - |
| 1777517612 | 9.44° C | 34% | 911.7 hPa | - | - | - | - |
| 1777516709 | 10° C | 34% | 911.5 hPa | - | - | - | - |
| 1777515812 | -5° C | 34% | 890.2 hPa | - | - | - | - |
| 1777514949 | 10° C | 34% | 911.7 hPa | - | - | - | - |
| 1777514909 | 10° C | 34% | 911.7 hPa | - | - | - | - |
| 1777514011 | 10° C | 34% | 911.7 hPa | - | - | - | - |
| 1777513108 | 10° C | 34% | 911.7 hPa | - | - | - | - |
| 1777512211 | 10.56° C | 32% | 911.9 hPa | - | - | - | - |
| 1777511311 | 10.56° C | 31% | 911.9 hPa | - | - | - | - |
| 1777510411 | 10.56° C | 29% | 911.8 hPa | - | - | - | - |
| 1777509511 | 10.56° C | 29% | 912 hPa | - | - | - | - |
| 1777508610 | 10.56° C | 29% | 911.9 hPa | - | - | - | - |
| 1777507710 | 10.56° C | 28% | 912.1 hPa | - | - | - | - |
| 1777506810 | 0.56° C | 29% | 897.4 hPa | - | - | - | - |
| 1777505907 | 10.56° C | 29% | 912.1 hPa | - | - | - | - |
| 1777505010 | 10.56° C | 29% | 912.2 hPa | - | - | - | - |
| 1777503209 | 10.56° C | 32% | 912.3 hPa | - | - | - | - |
| 1777502306 | 10.56° C | 38% | 912.4 hPa | - | - | - | - |
| 1777501406 | 10.56° C | 44% | 912.6 hPa | - | - | - | - |
| 1777500509 | 10.56° C | 41% | 912.6 hPa | - | - | - | - |
| 1777499606 | 10.56° C | 35% | 912.7 hPa | - | - | - | - |
* Rain since midnight (hover to see other rain measurements)
** Current wind speed in m/s (hover to see current wind gust speed)